createdAt,value
2018-06-16T00:00:30.976Z,91.61
2018-06-16T00:02:57.272Z,91.54
2018-06-16T00:05:23.565Z,91.59
2018-06-16T00:07:49.859Z,91.91
2018-06-16T00:10:16.154Z,91.24
2018-06-16T00:12:42.455Z,91.60
2018-06-16T00:15:08.773Z,91.33
2018-06-16T00:17:35.094Z,91.67
2018-06-16T00:20:01.384Z,91.88
2018-06-16T00:22:27.671Z,92.40
2018-06-16T00:24:53.965Z,91.88
2018-06-16T00:27:20.249Z,91.40
2018-06-16T00:29:46.569Z,91.47
2018-06-16T00:32:12.858Z,90.33
2018-06-16T00:34:39.144Z,89.94
2018-06-16T00:37:05.443Z,90.03
2018-06-16T00:39:31.744Z,90.32
2018-06-16T00:41:58.028Z,90.68
2018-06-16T00:44:24.319Z,90.55
2018-06-16T00:46:50.656Z,89.25
2018-06-16T00:49:16.950Z,88.71
2018-06-16T00:51:43.241Z,88.70
2018-06-16T00:54:09.537Z,89.35
2018-06-16T00:56:35.836Z,89.23
2018-06-16T00:59:02.170Z,89.77
2018-06-16T01:01:28.465Z,89.67
2018-06-16T01:03:54.790Z,89.87
2018-06-16T01:06:21.121Z,89.55
2018-06-16T01:08:47.416Z,89.96
2018-06-16T01:11:13.703Z,89.68
2018-06-16T01:13:40.081Z,89.13
2018-06-16T01:16:06.339Z,88.50
2018-06-16T01:18:32.633Z,88.29
2018-06-16T01:20:58.931Z,87.97
2018-06-16T01:23:25.223Z,87.74
2018-06-16T01:25:51.526Z,86.99
2018-06-16T01:28:17.822Z,87.57
2018-06-16T01:30:44.111Z,87.56
2018-06-16T01:33:10.412Z,87.20
2018-06-16T01:35:36.708Z,87.40
2018-06-16T01:38:03.003Z,86.81
2018-06-16T01:40:29.306Z,87.21
2018-06-16T01:42:55.594Z,87.84
2018-06-16T01:45:21.884Z,87.71
2018-06-16T01:47:48.177Z,87.43
2018-06-16T01:50:14.479Z,87.45
2018-06-16T01:52:40.810Z,87.95
2018-06-16T01:55:07.100Z,88.04
2018-06-16T01:57:33.398Z,88.51
2018-06-16T01:59:59.694Z,88.25
2018-06-16T02:02:25.990Z,88.30
2018-06-16T02:04:52.285Z,88.66
2018-06-16T02:07:18.583Z,88.93
2018-06-16T02:09:44.871Z,88.35
2018-06-16T02:12:11.162Z,88.20
2018-06-16T02:14:37.461Z,88.11
2018-06-16T02:17:03.757Z,88.48
2018-06-16T02:19:30.060Z,88.56
2018-06-16T02:21:56.377Z,88.79
2018-06-16T02:24:22.671Z,88.26
2018-06-16T02:26:48.963Z,88.41
2018-06-16T02:29:15.298Z,88.28
2018-06-16T02:31:41.592Z,87.31
2018-06-16T02:34:07.915Z,86.82
2018-06-16T02:36:34.205Z,87.48
2018-06-16T02:39:00.498Z,87.23
2018-06-16T02:41:26.795Z,87.81
2018-06-16T02:43:53.088Z,87.67
2018-06-16T02:46:19.408Z,88.03
2018-06-16T02:48:45.704Z,88.37
2018-06-16T02:51:11.995Z,88.82
2018-06-16T02:53:38.294Z,89.15
2018-06-16T02:56:04.596Z,88.58
2018-06-16T02:58:30.936Z,88.77
2018-06-16T03:00:57.235Z,89.28
2018-06-16T03:03:23.570Z,89.31
2018-06-16T03:05:49.834Z,89.39
2018-06-16T03:08:16.127Z,89.67
2018-06-16T03:10:42.420Z,89.33
2018-06-16T03:13:08.720Z,89.32
2018-06-16T03:15:35.020Z,88.93
2018-06-16T03:18:01.325Z,88.87
2018-06-16T03:20:27.615Z,88.48
2018-06-16T03:22:53.913Z,87.80
2018-06-16T03:25:20.206Z,87.24
2018-06-16T03:27:46.505Z,87.49
2018-06-16T03:30:12.814Z,87.39
2018-06-16T03:32:39.103Z,86.87
2018-06-16T03:35:05.407Z,85.98
2018-06-16T03:37:31.704Z,86.73
2018-06-16T03:39:57.998Z,86.69
2018-06-16T03:42:24.290Z,86.13
2018-06-16T03:44:50.615Z,86.34
2018-06-16T03:47:16.905Z,86.34
2018-06-16T03:49:43.197Z,86.29
2018-06-16T03:52:09.492Z,86.04
2018-06-16T03:54:35.835Z,86.03
2018-06-16T03:57:02.125Z,86.57
2018-06-16T03:59:28.417Z,85.62
2018-06-16T04:01:54.773Z,85.27
2018-06-16T04:04:20.997Z,85.29
2018-06-16T04:06:47.332Z,84.47
2018-06-16T04:09:13.650Z,83.83
2018-06-16T04:11:39.912Z,84.17
2018-06-16T04:14:06.205Z,84.10
2018-06-16T04:16:32.542Z,83.61
2018-06-16T04:18:58.868Z,83.09
2018-06-16T04:21:25.168Z,82.88
2018-06-16T04:23:51.459Z,83.43
2018-06-16T04:26:17.750Z,83.44
2018-06-16T04:28:44.044Z,83.08
2018-06-16T04:31:10.365Z,82.45
2018-06-16T04:33:36.663Z,81.88
2018-06-16T04:36:02.957Z,81.24
2018-06-16T04:38:29.302Z,81.36
2018-06-16T04:40:55.590Z,80.54
2018-06-16T04:43:21.883Z,80.72
2018-06-16T04:45:48.245Z,80.70
2018-06-16T04:48:14.473Z,80.57
2018-06-16T04:50:40.793Z,80.44
2018-06-16T04:53:07.086Z,79.18
2018-06-16T04:55:33.377Z,79.02
2018-06-16T04:57:59.674Z,78.09
2018-06-16T05:00:25.971Z,77.57
2018-06-16T05:02:52.271Z,78.15
2018-06-16T05:05:18.551Z,77.74
2018-06-16T05:07:44.888Z,78.71
2018-06-16T05:10:11.187Z,78.63
2018-06-16T05:12:37.515Z,79.41
2018-06-16T05:15:03.813Z,80.18
2018-06-16T05:17:30.111Z,79.29
2018-06-16T05:19:56.412Z,79.43
2018-06-16T05:22:22.717Z,80.07
2018-06-16T05:24:49.008Z,78.81
2018-06-16T05:27:15.302Z,78.00
2018-06-16T05:29:41.596Z,77.54
2018-06-16T05:32:07.893Z,78.94
2018-06-16T05:34:34.183Z,79.58
2018-06-16T05:37:00.471Z,80.63
2018-06-16T05:39:26.773Z,80.35
2018-06-16T05:41:53.075Z,80.25
2018-06-16T05:44:19.369Z,79.65
2018-06-16T05:46:45.667Z,80.27
2018-06-16T05:49:11.965Z,80.42
2018-06-16T05:51:38.252Z,80.56
2018-06-16T05:54:04.568Z,80.91
2018-06-16T05:56:30.837Z,81.23
2018-06-16T05:58:57.135Z,81.40
2018-06-16T06:01:23.477Z,81.91
2018-06-16T06:03:49.764Z,81.89
2018-06-16T06:06:16.051Z,81.86
2018-06-16T06:08:42.353Z,81.86
2018-06-16T06:11:08.650Z,81.29
2018-06-16T06:13:34.982Z,81.31
2018-06-16T06:16:01.278Z,81.68
2018-06-16T06:18:27.600Z,81.55
2018-06-16T06:20:53.893Z,81.31
2018-06-16T06:23:20.194Z,81.12
2018-06-16T06:25:46.489Z,80.51
2018-06-16T06:28:12.794Z,80.22
2018-06-16T06:30:39.091Z,80.15
2018-06-16T06:33:05.488Z,79.46
2018-06-16T06:35:31.844Z,79.67
2018-06-16T06:37:58.225Z,77.38
2018-06-16T06:40:24.512Z,77.19
2018-06-16T06:42:50.803Z,76.38
2018-06-16T06:45:17.097Z,75.80
2018-06-16T06:47:43.392Z,73.63
2018-06-16T06:50:09.684Z,73.04
2018-06-16T06:52:35.977Z,72.26
2018-06-16T06:55:02.278Z,70.99
2018-06-16T06:57:28.569Z,67.13
2018-06-16T06:59:54.880Z,67.27
2018-06-16T07:02:21.171Z,67.57
2018-06-16T07:04:47.459Z,65.71
2018-06-16T07:07:13.800Z,63.00
2018-06-16T07:09:40.100Z,63.57
2018-06-16T07:12:06.435Z,62.13
2018-06-16T07:14:32.732Z,62.46
2018-06-16T07:16:59.020Z,62.59
2018-06-16T07:19:25.355Z,60.40
2018-06-16T07:21:51.713Z,57.87
2018-06-16T07:24:18.044Z,57.47
2018-06-16T07:26:44.390Z,56.02
2018-06-16T07:29:10.687Z,56.38
2018-06-16T07:31:36.988Z,56.51
2018-06-16T07:34:03.499Z,56.30
2018-06-16T07:36:29.812Z,56.28
2018-06-16T07:38:56.116Z,55.10
2018-06-16T07:41:22.626Z,53.16
2018-06-16T07:43:48.887Z,53.00
2018-06-16T07:46:15.177Z,55.89
2018-06-16T07:48:41.468Z,53.79
2018-06-16T07:51:07.768Z,54.16
2018-06-16T07:53:34.064Z,53.53
2018-06-16T07:56:00.363Z,53.52
2018-06-16T07:58:26.651Z,53.09
2018-06-16T08:00:52.950Z,51.91
2018-06-16T08:03:19.281Z,51.93
2018-06-16T08:05:45.614Z,51.14
2018-06-16T08:08:11.916Z,49.06
2018-06-16T08:10:38.211Z,49.95
2018-06-16T08:13:04.560Z,51.12
2018-06-16T08:15:30.849Z,50.77
2018-06-16T08:17:57.213Z,50.79
2018-06-16T08:20:23.443Z,49.10
2018-06-16T08:22:49.774Z,50.13
2018-06-16T08:25:16.087Z,49.21
2018-06-16T08:27:42.376Z,48.09
2018-06-16T08:30:08.698Z,48.72
2018-06-16T08:32:34.984Z,49.61
2018-06-16T08:35:01.279Z,49.63
2018-06-16T08:37:27.572Z,50.60
2018-06-16T08:39:53.860Z,48.77
2018-06-16T08:42:20.157Z,48.03
2018-06-16T08:44:46.444Z,46.62
2018-06-16T08:47:12.733Z,46.46
2018-06-16T08:49:39.030Z,47.36
2018-06-16T08:52:05.326Z,48.17
2018-06-16T08:54:31.647Z,51.55
2018-06-16T08:56:57.941Z,52.37
2018-06-16T08:59:24.261Z,50.90
2018-06-16T09:01:50.576Z,48.81
2018-06-16T09:04:16.864Z,45.70
2018-06-16T09:06:43.157Z,46.85
2018-06-16T09:09:09.452Z,46.82
2018-06-16T09:11:35.748Z,46.11
2018-06-16T09:14:02.036Z,46.31
2018-06-16T09:16:28.333Z,45.56
2018-06-16T09:18:54.630Z,47.21
2018-06-16T09:21:20.925Z,50.44
2018-06-16T09:23:47.222Z,48.26
2018-06-16T09:26:13.516Z,51.32
2018-06-16T09:28:39.818Z,53.10
2018-06-16T09:31:06.104Z,48.88
2018-06-16T09:33:32.397Z,48.02
2018-06-16T09:35:58.685Z,48.47
2018-06-16T09:38:24.997Z,48.41
2018-06-16T09:40:51.268Z,50.23
2018-06-16T09:43:17.596Z,50.71
2018-06-16T09:45:43.897Z,48.64
2018-06-16T09:48:10.287Z,45.14
2018-06-16T09:50:36.515Z,42.96
2018-06-16T09:53:02.811Z,42.19
2018-06-16T09:55:29.142Z,41.05
2018-06-16T09:57:55.427Z,42.22
2018-06-16T10:00:21.724Z,42.83
2018-06-16T10:02:48.016Z,42.69
2018-06-16T10:05:14.347Z,44.81
2018-06-16T10:07:40.632Z,47.77
2018-06-16T10:10:06.918Z,48.61
2018-06-16T10:12:33.246Z,50.51
2018-06-16T10:14:59.533Z,49.53
2018-06-16T10:17:25.833Z,46.93
2018-06-16T10:19:52.142Z,45.55
2018-06-16T10:22:18.480Z,47.19
2018-06-16T10:24:44.769Z,44.33
2018-06-16T10:27:11.062Z,42.59
2018-06-16T10:29:37.387Z,42.07
2018-06-16T10:32:03.690Z,45.92
2018-06-16T10:34:29.985Z,47.72
2018-06-16T10:36:56.286Z,45.81
2018-06-16T10:39:22.623Z,45.18
2018-06-16T10:41:48.949Z,44.46
2018-06-16T10:44:15.271Z,43.92
2018-06-16T10:46:41.565Z,43.14
2018-06-16T10:49:07.861Z,42.84
2018-06-16T10:51:34.147Z,43.29
2018-06-16T10:54:00.433Z,42.46
2018-06-16T10:56:26.748Z,41.42
2018-06-16T10:58:53.039Z,40.86
2018-06-16T11:01:19.325Z,42.71
2018-06-16T11:03:45.625Z,43.74
2018-06-16T11:06:11.961Z,46.45
2018-06-16T11:08:38.248Z,48.34
2018-06-16T11:11:04.537Z,50.12
2018-06-16T11:13:30.832Z,51.89
2018-06-16T11:15:57.115Z,52.05
2018-06-16T11:18:23.412Z,53.54
2018-06-16T11:20:49.727Z,53.87
2018-06-16T11:23:16.025Z,55.30
2018-06-16T11:25:42.328Z,55.88
2018-06-16T11:28:08.626Z,56.21
2018-06-16T11:30:34.963Z,56.99
2018-06-16T11:33:01.218Z,57.30
2018-06-16T11:35:27.507Z,56.34
2018-06-16T11:37:53.800Z,56.53
2018-06-16T11:40:20.140Z,56.44
2018-06-16T11:42:46.437Z,56.38
2018-06-16T11:45:12.742Z,56.44
2018-06-16T11:47:39.030Z,56.12
2018-06-16T11:50:05.337Z,56.99
2018-06-16T11:52:31.657Z,56.95
2018-06-16T11:54:57.946Z,56.91
2018-06-16T11:57:24.245Z,57.99
2018-06-16T11:59:50.548Z,57.60
2018-06-16T12:02:16.840Z,60.98
2018-06-16T12:04:43.135Z,64.18
2018-06-16T12:07:09.472Z,67.07
2018-06-16T12:09:35.770Z,66.05
2018-06-16T12:12:02.061Z,67.93
2018-06-16T12:14:28.368Z,71.38
2018-06-16T12:16:54.650Z,82.25
2018-06-16T12:19:20.940Z,86.37
2018-06-16T12:21:47.271Z,88.32
2018-06-16T12:24:13.566Z,91.79
2018-06-16T12:26:39.855Z,94.02
2018-06-16T12:29:06.149Z,95.15
2018-06-16T12:31:32.446Z,96.08
2018-06-16T12:33:58.731Z,95.12
2018-06-16T12:36:25.029Z,95.15
2018-06-16T12:38:51.330Z,96.28
2018-06-16T12:41:17.642Z,96.66
2018-06-16T12:43:43.932Z,95.79
2018-06-16T12:46:10.220Z,93.75
2018-06-16T12:48:36.519Z,94.11
2018-06-16T12:51:02.816Z,95.97
2018-06-16T12:53:29.116Z,96.42
2018-06-16T12:55:55.414Z,97.40
2018-06-16T12:58:21.769Z,98.20
2018-06-16T13:00:48.072Z,98.05
2018-06-16T13:03:14.366Z,98.88
2018-06-16T13:05:40.694Z,99.33
2018-06-16T13:08:06.994Z,100.00
2018-06-16T13:10:33.292Z,100.00
2018-06-16T13:12:59.591Z,100.00
2018-06-16T13:15:25.889Z,100.00
2018-06-16T13:17:52.188Z,100.00
2018-06-16T13:20:18.489Z,100.00
2018-06-16T13:22:44.828Z,100.00
2018-06-16T13:25:11.126Z,100.00
2018-06-16T13:27:37.439Z,100.00
2018-06-16T13:30:03.730Z,100.00
2018-06-16T13:32:30.033Z,100.00
2018-06-16T13:34:56.334Z,100.00
2018-06-16T13:37:22.629Z,100.00
2018-06-16T13:39:48.931Z,100.00
2018-06-16T13:42:15.228Z,100.00
2018-06-16T13:44:41.556Z,100.00
2018-06-16T13:47:07.857Z,100.00
2018-06-16T13:49:34.148Z,100.00
2018-06-16T13:52:00.445Z,100.00
2018-06-16T13:54:26.773Z,100.00
2018-06-16T13:56:53.077Z,100.00
2018-06-16T13:59:19.371Z,100.00
2018-06-16T14:01:45.713Z,100.00
2018-06-16T14:04:12.018Z,100.00
2018-06-16T14:06:38.302Z,100.00
2018-06-16T14:09:04.600Z,100.00
2018-06-16T14:11:30.901Z,100.00
2018-06-16T14:13:57.198Z,100.00
2018-06-16T14:16:23.492Z,100.00
2018-06-16T14:18:49.794Z,100.00
2018-06-16T14:21:16.090Z,100.00
2018-06-16T14:23:42.400Z,100.00
2018-06-16T14:26:08.697Z,100.00
2018-06-16T14:28:35.003Z,100.00
2018-06-16T14:31:01.322Z,100.00
2018-06-16T14:33:27.639Z,100.00
2018-06-16T14:35:53.944Z,100.00
2018-06-16T14:38:20.266Z,100.00
2018-06-16T14:40:46.553Z,100.00
2018-06-16T14:43:12.847Z,100.00
2018-06-16T14:45:39.152Z,100.00
2018-06-16T14:48:05.450Z,100.00
2018-06-16T14:50:31.749Z,100.00
2018-06-16T14:52:58.070Z,100.00
2018-06-16T14:55:24.365Z,100.00
2018-06-16T14:57:50.656Z,100.00
2018-06-16T15:00:16.978Z,100.00
2018-06-16T15:02:43.294Z,100.00
2018-06-16T15:05:09.656Z,100.00
2018-06-16T15:07:35.925Z,100.00
2018-06-16T15:10:02.227Z,100.00
2018-06-16T15:12:28.522Z,100.00
2018-06-16T15:14:54.826Z,100.00
2018-06-16T15:17:21.117Z,100.00
2018-06-16T15:19:47.438Z,100.00
2018-06-16T15:22:13.732Z,100.00
2018-06-16T15:24:40.028Z,100.00
2018-06-16T15:27:06.365Z,100.00
2018-06-16T15:29:32.657Z,100.00
2018-06-16T15:31:58.952Z,100.00
2018-06-16T15:34:25.246Z,100.00
2018-06-16T15:36:51.543Z,100.00
2018-06-16T15:39:18.213Z,100.00
2018-06-16T15:41:44.505Z,100.00
2018-06-16T15:44:10.837Z,100.00
2018-06-16T15:46:37.234Z,100.00
2018-06-16T15:49:03.466Z,100.00
2018-06-16T15:51:29.762Z,100.00
2018-06-16T15:53:56.060Z,100.00
2018-06-16T15:56:22.349Z,100.00
2018-06-16T15:58:48.706Z,100.00
2018-06-16T16:01:15.001Z,100.00
2018-06-16T16:03:41.294Z,100.00
2018-06-16T16:06:07.594Z,100.00
2018-06-16T16:08:33.885Z,100.00
2018-06-16T16:11:00.211Z,100.00
2018-06-16T16:13:26.508Z,100.00
2018-06-16T16:15:52.802Z,100.00
2018-06-16T16:18:19.107Z,100.00
2018-06-16T16:20:45.400Z,100.00
2018-06-16T16:23:11.727Z,100.00
2018-06-16T16:25:38.017Z,100.00
2018-06-16T16:28:04.322Z,100.00
2018-06-16T16:30:30.651Z,100.00
2018-06-16T16:32:58.639Z,100.00
2018-06-16T16:35:23.282Z,100.00
2018-06-16T16:37:49.587Z,100.00
2018-06-16T16:40:15.889Z,100.00
2018-06-16T16:42:42.200Z,100.00
2018-06-16T16:45:08.509Z,100.00
2018-06-16T16:47:34.793Z,100.00
2018-06-16T16:50:01.122Z,100.00
2018-06-16T16:52:27.414Z,100.00
2018-06-16T16:54:53.711Z,100.00
2018-06-16T16:57:20.006Z,100.00
2018-06-16T16:59:46.302Z,100.00
2018-06-16T17:02:12.620Z,100.00
2018-06-16T17:04:38.918Z,100.00
2018-06-16T17:07:05.214Z,100.00
2018-06-16T17:09:31.744Z,100.00
2018-06-16T17:11:58.025Z,100.00
2018-06-16T17:14:24.358Z,100.00
2018-06-16T17:16:50.653Z,100.00
2018-06-16T17:19:16.956Z,100.00
2018-06-16T17:21:43.489Z,100.00
2018-06-16T17:24:09.781Z,100.00
2018-06-16T17:26:36.100Z,100.00
2018-06-16T17:29:02.404Z,100.00
2018-06-16T17:31:28.707Z,100.00
2018-06-16T17:33:54.996Z,100.00
2018-06-16T17:36:21.292Z,100.00
2018-06-16T17:38:47.664Z,100.00
2018-06-16T17:41:13.967Z,100.00
2018-06-16T17:43:40.263Z,100.00
2018-06-16T17:46:06.603Z,100.00
2018-06-16T17:48:32.961Z,100.00
2018-06-16T17:50:59.252Z,100.00
2018-06-16T17:53:25.564Z,100.00
2018-06-16T17:55:51.858Z,100.00
2018-06-16T17:58:18.259Z,100.00
2018-06-16T18:00:44.561Z,100.00
2018-06-16T18:03:10.850Z,100.00
2018-06-16T18:05:37.185Z,100.00
2018-06-16T18:08:03.478Z,100.00
2018-06-16T18:10:29.769Z,100.00
2018-06-16T18:12:56.084Z,100.00
2018-06-16T18:15:22.389Z,100.00
2018-06-16T18:17:48.831Z,100.00
2018-06-16T18:20:15.051Z,100.00
2018-06-16T18:22:41.354Z,100.00
2018-06-16T18:25:07.657Z,100.00
2018-06-16T18:27:33.987Z,100.00
2018-06-16T18:30:00.320Z,100.00
2018-06-16T18:32:26.612Z,100.00
2018-06-16T18:34:52.910Z,100.00
2018-06-16T18:37:19.217Z,100.00
2018-06-16T18:39:45.519Z,100.00
2018-06-16T18:42:11.844Z,100.00
2018-06-16T18:44:38.137Z,100.00
2018-06-16T18:47:04.428Z,100.00
2018-06-16T18:49:30.762Z,100.00
2018-06-16T18:51:57.055Z,100.00
2018-06-16T18:54:23.350Z,100.00
2018-06-16T18:56:49.654Z,100.00
2018-06-16T18:59:15.941Z,100.00
2018-06-16T19:01:42.268Z,100.00
2018-06-16T19:04:08.618Z,100.00
2018-06-16T19:06:34.872Z,100.00
2018-06-16T19:09:01.194Z,100.00
2018-06-16T19:11:27.492Z,100.00
2018-06-16T19:13:54.646Z,100.00
2018-06-16T19:16:20.985Z,100.00
2018-06-16T19:18:47.279Z,100.00
2018-06-16T19:21:13.568Z,100.00
2018-06-16T19:23:40.941Z,100.00
2018-06-16T19:26:07.236Z,100.00
2018-06-16T19:28:33.582Z,100.00
2018-06-16T19:30:59.863Z,100.00
2018-06-16T19:33:26.157Z,100.00
2018-06-16T19:35:52.444Z,100.00
2018-06-16T19:38:18.749Z,100.00
2018-06-16T19:40:45.038Z,100.00
2018-06-16T19:43:11.384Z,100.00
2018-06-16T19:45:37.666Z,100.00
2018-06-16T19:48:03.963Z,100.00
2018-06-16T19:50:30.315Z,100.00
2018-06-16T19:52:56.620Z,100.00
2018-06-16T19:55:22.910Z,100.00
2018-06-16T19:57:49.212Z,100.00
2018-06-16T20:00:15.510Z,100.00
2018-06-16T20:02:41.843Z,100.00
2018-06-16T20:05:08.150Z,100.00
2018-06-16T20:07:34.447Z,100.00
2018-06-16T20:10:00.741Z,100.00
2018-06-16T20:12:27.043Z,100.00
2018-06-16T20:14:53.369Z,100.00
2018-06-16T20:17:19.700Z,100.00
2018-06-16T20:19:45.961Z,100.00
2018-06-16T20:22:12.256Z,100.00
2018-06-16T20:24:38.544Z,100.00
2018-06-16T20:27:04.875Z,100.00
2018-06-16T20:29:31.177Z,100.00
2018-06-16T20:31:57.468Z,100.00
2018-06-16T20:34:23.762Z,100.00
2018-06-16T20:36:50.053Z,100.00
2018-06-16T20:39:16.384Z,100.00
2018-06-16T20:41:42.675Z,100.00
2018-06-16T20:44:08.972Z,100.00
2018-06-16T20:46:35.270Z,100.00
2018-06-16T20:49:01.567Z,100.00
2018-06-16T20:51:27.896Z,100.00
2018-06-16T20:53:54.195Z,100.00
2018-06-16T20:56:20.496Z,100.00
2018-06-16T20:58:46.825Z,100.00
2018-06-16T21:01:13.122Z,100.00
2018-06-16T21:03:39.422Z,100.00
2018-06-16T21:06:05.742Z,100.00
2018-06-16T21:08:32.040Z,100.00
2018-06-16T21:10:58.335Z,100.00
2018-06-16T21:13:24.685Z,100.00
2018-06-16T21:15:50.982Z,100.00
2018-06-16T21:18:17.282Z,100.00
2018-06-16T21:20:43.606Z,100.00
2018-06-16T21:23:09.896Z,100.00
2018-06-16T21:25:36.204Z,100.00
2018-06-16T21:28:02.539Z,100.00
2018-06-16T21:30:28.841Z,100.00
2018-06-16T21:32:55.141Z,100.00
2018-06-16T21:35:21.480Z,100.00
2018-06-16T21:37:47.785Z,100.00
2018-06-16T21:40:14.073Z,100.00
2018-06-16T21:42:40.402Z,100.00
2018-06-16T21:45:06.702Z,100.00
2018-06-16T21:47:32.998Z,100.00
2018-06-16T21:49:59.295Z,100.00
2018-06-16T21:52:25.605Z,100.00
2018-06-16T21:54:51.934Z,100.00
2018-06-16T21:57:18.234Z,100.00
2018-06-16T21:59:44.526Z,100.00
2018-06-16T22:02:10.858Z,100.00
2018-06-16T22:04:37.156Z,100.00
2018-06-16T22:07:03.449Z,100.00
2018-06-16T22:09:30.098Z,100.00
2018-06-16T22:11:56.388Z,100.00
2018-06-16T22:14:22.735Z,100.00
2018-06-16T22:16:49.020Z,100.00
2018-06-16T22:19:15.313Z,100.00
2018-06-16T22:21:41.640Z,100.00
2018-06-16T22:24:07.949Z,100.00
2018-06-16T22:26:34.246Z,100.00
2018-06-16T22:29:00.552Z,100.00
2018-06-16T22:31:26.842Z,100.00
2018-06-16T22:33:53.178Z,100.00
2018-06-16T22:36:19.509Z,100.00
2018-06-16T22:38:45.770Z,100.00
2018-06-16T22:41:12.072Z,100.00
2018-06-16T22:43:38.371Z,100.00
2018-06-16T22:46:04.692Z,100.00
2018-06-16T22:48:30.993Z,100.00
2018-06-16T22:50:57.289Z,100.00
2018-06-16T22:53:23.612Z,100.00
2018-06-16T22:55:49.913Z,100.00
2018-06-16T22:58:16.241Z,100.00
2018-06-16T23:00:42.534Z,100.00
2018-06-16T23:03:08.832Z,100.00
2018-06-16T23:05:35.140Z,100.00
2018-06-16T23:08:01.439Z,100.00
2018-06-16T23:10:27.765Z,100.00
2018-06-16T23:12:54.061Z,100.00
2018-06-16T23:15:20.369Z,100.00
2018-06-16T23:17:46.662Z,100.00
2018-06-16T23:20:12.959Z,100.00
2018-06-16T23:22:39.286Z,100.00
2018-06-16T23:25:05.576Z,100.00
2018-06-16T23:27:31.866Z,100.00
2018-06-16T23:29:58.162Z,100.00
2018-06-16T23:32:24.462Z,100.00
2018-06-16T23:34:50.789Z,100.00
2018-06-16T23:37:17.085Z,100.00
2018-06-16T23:39:43.373Z,100.00
2018-06-16T23:42:09.670Z,100.00
2018-06-16T23:44:35.981Z,100.00
2018-06-16T23:47:02.320Z,100.00
2018-06-16T23:49:28.608Z,100.00
2018-06-16T23:51:54.900Z,100.00
2018-06-16T23:54:21.196Z,100.00
2018-06-16T23:56:47.486Z,100.00
2018-06-16T23:59:13.819Z,100.00
